sensor_id;sensor_type;location;lat;lon;timestamp;pressure;altitude;pressure_sealevel;temperature;humidity
59873;BME280;50750;51.636;4.948;2023-06-22T00:00:54;102042.81;;;26.35;51.33
59873;BME280;50750;51.636;4.948;2023-06-22T00:03:30;102046.98;;;26.34;51.28
59873;BME280;50750;51.636;4.948;2023-06-22T00:05:57;102041.61;;;26.34;51.35
59873;BME280;50750;51.636;4.948;2023-06-22T00:08:23;102041.80;;;26.34;51.30
59873;BME280;50750;51.636;4.948;2023-06-22T00:10:49;102042.52;;;26.34;51.20
59873;BME280;50750;51.636;4.948;2023-06-22T00:13:16;102043.79;;;26.34;51.28
59873;BME280;50750;51.636;4.948;2023-06-22T00:15:44;102045.04;;;26.34;51.28
59873;BME280;50750;51.636;4.948;2023-06-22T00:18:11;102041.85;;;26.33;51.30
59873;BME280;50750;51.636;4.948;2023-06-22T00:20:39;102039.35;;;26.33;51.13
59873;BME280;50750;51.636;4.948;2023-06-22T00:23:06;102038.67;;;26.32;51.39
59873;BME280;50750;51.636;4.948;2023-06-22T00:25:37;102037.08;;;26.32;51.31
59873;BME280;50750;51.636;4.948;2023-06-22T00:28:04;102032.59;;;26.32;51.13
59873;BME280;50750;51.636;4.948;2023-06-22T00:30:32;102034.23;;;26.32;51.22
59873;BME280;50750;51.636;4.948;2023-06-22T00:32:59;102028.70;;;26.32;51.36
59873;BME280;50750;51.636;4.948;2023-06-22T00:35:27;102028.88;;;26.32;51.35
59873;BME280;50750;51.636;4.948;2023-06-22T00:37:55;102025.33;;;26.31;51.35
59873;BME280;50750;51.636;4.948;2023-06-22T00:40:31;102029.67;;;26.30;51.34
59873;BME280;50750;51.636;4.948;2023-06-22T00:42:58;102033.98;;;26.31;51.33
59873;BME280;50750;51.636;4.948;2023-06-22T00:45:26;102034.17;;;26.30;51.31
59873;BME280;50750;51.636;4.948;2023-06-22T00:47:54;102030.95;;;26.30;51.24
59873;BME280;50750;51.636;4.948;2023-06-22T00:50:23;102030.41;;;26.30;51.34
59873;BME280;50750;51.636;4.948;2023-06-22T00:52:55;102026.99;;;26.31;51.24
59873;BME280;50750;51.636;4.948;2023-06-22T00:55:25;102021.45;;;26.30;51.32
59873;BME280;50750;51.636;4.948;2023-06-22T00:57:54;102015.66;;;26.31;51.41
59873;BME280;50750;51.636;4.948;2023-06-22T01:00:24;102010.27;;;26.31;51.24
59873;BME280;50750;51.636;4.948;2023-06-22T01:02:52;102014.57;;;26.31;51.19
59873;BME280;50750;51.636;4.948;2023-06-22T01:05:20;102016.19;;;26.31;51.29
59873;BME280;50750;51.636;4.948;2023-06-22T01:13:02;102008.46;;;26.31;51.17
59873;BME280;50750;51.636;4.948;2023-06-22T01:15:35;102011.34;;;26.31;51.18
59873;BME280;50750;51.636;4.948;2023-06-22T01:18:04;102010.44;;;26.31;51.20
59873;BME280;50750;51.636;4.948;2023-06-22T01:20:34;102008.29;;;26.31;51.33
59873;BME280;50750;51.636;4.948;2023-06-22T01:23:27;102008.29;;;26.31;51.27
59873;BME280;50750;51.636;4.948;2023-06-22T01:26:06;102007.04;;;26.31;51.29
59873;BME280;50750;51.636;4.948;2023-06-22T01:28:49;102004.23;;;26.30;51.24
59873;BME280;50750;51.636;4.948;2023-06-22T01:31:20;101999.41;;;26.29;51.32
59873;BME280;50750;51.636;4.948;2023-06-22T01:33:53;101996.35;;;26.30;51.13
59873;BME280;50750;51.636;4.948;2023-06-22T01:36:21;101989.58;;;26.29;51.28
59873;BME280;50750;51.636;4.948;2023-06-22T01:38:49;101994.42;;;26.29;51.00
59873;BME280;50750;51.636;4.948;2023-06-22T01:41:17;102000.20;;;26.29;51.12
59873;BME280;50750;51.636;4.948;2023-06-22T01:43:45;102000.60;;;26.28;51.18
59873;BME280;50750;51.636;4.948;2023-06-22T01:46:12;102006.92;;;26.28;51.22
59873;BME280;50750;51.636;4.948;2023-06-22T01:48:39;102010.48;;;26.28;51.09
59873;BME280;50750;51.636;4.948;2023-06-22T01:51:06;102009.63;;;26.27;51.16
59873;BME280;50750;51.636;4.948;2023-06-22T01:53:34;102013.77;;;26.27;51.08
59873;BME280;50750;51.636;4.948;2023-06-22T01:56:00;102014.84;;;26.28;51.22
59873;BME280;50750;51.636;4.948;2023-06-22T01:58:29;102008.62;;;26.27;51.07
59873;BME280;50750;51.636;4.948;2023-06-22T02:01:09;102007.56;;;26.26;51.24
59873;BME280;50750;51.636;4.948;2023-06-22T02:03:43;102003.26;;;26.26;51.19
59873;BME280;50750;51.636;4.948;2023-06-22T02:06:17;102007.65;;;26.26;51.22
59873;BME280;50750;51.636;4.948;2023-06-22T02:08:49;102006.41;;;26.25;51.23
59873;BME280;50750;51.636;4.948;2023-06-22T02:11:19;102001.38;;;26.25;51.05
59873;BME280;50750;51.636;4.948;2023-06-22T02:13:47;102001.02;;;26.25;51.16
59873;BME280;50750;51.636;4.948;2023-06-22T02:16:16;102002.13;;;26.25;51.12
59873;BME280;50750;51.636;4.948;2023-06-22T02:18:47;101995.15;;;26.24;51.14
59873;BME280;50750;51.636;4.948;2023-06-22T02:21:20;101999.27;;;26.24;51.24
59873;BME280;50750;51.636;4.948;2023-06-22T02:23:47;101995.88;;;26.24;51.17
59873;BME280;50750;51.636;4.948;2023-06-22T02:26:16;101992.65;;;26.24;51.10
59873;BME280;50750;51.636;4.948;2023-06-22T02:28:43;101991.29;;;26.23;51.15
59873;BME280;50750;51.636;4.948;2023-06-22T02:31:10;101987.88;;;26.23;51.12
59873;BME280;50750;51.636;4.948;2023-06-22T02:33:37;101982.92;;;26.22;51.10
59873;BME280;50750;51.636;4.948;2023-06-22T02:36:04;101977.17;;;26.22;51.08
59873;BME280;50750;51.636;4.948;2023-06-22T02:38:31;101978.64;;;26.22;51.18
59873;BME280;50750;51.636;4.948;2023-06-22T02:41:00;101984.23;;;26.21;51.13
59873;BME280;50750;51.636;4.948;2023-06-22T02:43:27;101989.06;;;26.21;51.17
59873;BME280;50750;51.636;4.948;2023-06-22T02:45:54;101989.10;;;26.21;51.08
59873;BME280;50750;51.636;4.948;2023-06-22T02:48:21;101984.11;;;26.21;51.19
59873;BME280;50750;51.636;4.948;2023-06-22T02:50:47;101987.70;;;26.20;51.13
59873;BME280;50750;51.636;4.948;2023-06-22T02:53:14;101985.61;;;26.20;51.13
59873;BME280;50750;51.636;4.948;2023-06-22T02:55:42;101986.73;;;26.19;51.14
59873;BME280;50750;51.636;4.948;2023-06-22T02:58:08;101985.13;;;26.19;51.26
59873;BME280;50750;51.636;4.948;2023-06-22T03:00:35;101975.27;;;26.19;51.17
59873;BME280;50750;51.636;4.948;2023-06-22T03:03:02;101968.34;;;26.18;51.17
59873;BME280;50750;51.636;4.948;2023-06-22T03:05:29;101964.59;;;26.18;51.23
59873;BME280;50750;51.636;4.948;2023-06-22T03:07:56;101956.38;;;26.17;51.20
59873;BME280;50750;51.636;4.948;2023-06-22T03:10:22;101953.34;;;26.17;51.20
59873;BME280;50750;51.636;4.948;2023-06-22T03:12:49;101951.05;;;26.16;51.13
59873;BME280;50750;51.636;4.948;2023-06-22T03:15:16;101952.69;;;26.16;51.07
59873;BME280;50750;51.636;4.948;2023-06-22T03:17:46;101951.66;;;26.16;51.14
59873;BME280;50750;51.636;4.948;2023-06-22T03:20:13;101949.88;;;26.15;51.09
59873;BME280;50750;51.636;4.948;2023-06-22T03:22:41;101948.83;;;26.15;51.32
59873;BME280;50750;51.636;4.948;2023-06-22T03:25:09;101947.44;;;26.15;51.09
59873;BME280;50750;51.636;4.948;2023-06-22T03:27:42;101941.56;;;26.14;51.22
59873;BME280;50750;51.636;4.948;2023-06-22T03:30:11;101940.85;;;26.14;51.07
59873;BME280;50750;51.636;4.948;2023-06-22T03:32:37;101941.75;;;26.14;51.18
59873;BME280;50750;51.636;4.948;2023-06-22T03:35:04;101946.77;;;26.14;51.20
59873;BME280;50750;51.636;4.948;2023-06-22T03:37:32;101950.42;;;26.13;51.09
59873;BME280;50750;51.636;4.948;2023-06-22T03:39:58;101951.85;;;26.13;51.17
59873;BME280;50750;51.636;4.948;2023-06-22T03:42:26;101951.71;;;26.13;51.26
59873;BME280;50750;51.636;4.948;2023-06-22T03:44:52;101948.51;;;26.12;51.20
59873;BME280;50750;51.636;4.948;2023-06-22T03:47:18;101951.23;;;26.12;51.17
59873;BME280;50750;51.636;4.948;2023-06-22T03:49:45;101951.79;;;26.12;51.13
59873;BME280;50750;51.636;4.948;2023-06-22T03:52:11;101950.21;;;26.11;51.17
59873;BME280;50750;51.636;4.948;2023-06-22T03:54:37;101945.02;;;26.11;51.23
59873;BME280;50750;51.636;4.948;2023-06-22T03:57:04;101943.60;;;26.11;51.15
59873;BME280;50750;51.636;4.948;2023-06-22T03:59:32;101945.10;;;26.10;51.20
59873;BME280;50750;51.636;4.948;2023-06-22T04:01:59;101941.92;;;26.10;51.26
59873;BME280;50750;51.636;4.948;2023-06-22T04:04:25;101934.79;;;26.09;51.20
59873;BME280;50750;51.636;4.948;2023-06-22T04:06:51;101934.04;;;26.09;51.25
59873;BME280;50750;51.636;4.948;2023-06-22T04:09:18;101936.41;;;26.09;51.20
59873;BME280;50750;51.636;4.948;2023-06-22T04:11:44;101935.39;;;26.08;51.06
59873;BME280;50750;51.636;4.948;2023-06-22T04:14:10;101934.33;;;26.08;51.21
59873;BME280;50750;51.636;4.948;2023-06-22T04:16:37;101934.92;;;26.07;51.18
59873;BME280;50750;51.636;4.948;2023-06-22T04:19:03;101933.79;;;26.08;51.17
59873;BME280;50750;51.636;4.948;2023-06-22T04:21:29;101928.52;;;26.07;51.13
59873;BME280;50750;51.636;4.948;2023-06-22T04:23:56;101926.55;;;26.07;51.32
59873;BME280;50750;51.636;4.948;2023-06-22T04:26:22;101933.21;;;26.06;51.18
59873;BME280;50750;51.636;4.948;2023-06-22T04:28:48;101941.11;;;26.06;51.14
59873;BME280;50750;51.636;4.948;2023-06-22T04:31:21;101943.49;;;26.05;51.22
59873;BME280;50750;51.636;4.948;2023-06-22T04:33:48;101944.80;;;26.05;51.11
59873;BME280;50750;51.636;4.948;2023-06-22T04:36:17;101944.45;;;26.05;51.28
59873;BME280;50750;51.636;4.948;2023-06-22T04:38:44;101942.21;;;26.04;51.18
59873;BME280;50750;51.636;4.948;2023-06-22T04:41:10;101947.39;;;26.04;51.19
59873;BME280;50750;51.636;4.948;2023-06-22T04:43:49;101951.58;;;26.03;51.14
59873;BME280;50750;51.636;4.948;2023-06-22T04:46:19;101955.17;;;26.03;51.15
59873;BME280;50750;51.636;4.948;2023-06-22T04:48:46;101951.29;;;26.03;51.30
59873;BME280;50750;51.636;4.948;2023-06-22T04:51:12;101950.89;;;26.03;51.28
59873;BME280;50750;51.636;4.948;2023-06-22T04:53:39;101947.68;;;26.02;51.21
59873;BME280;50750;51.636;4.948;2023-06-22T04:56:08;101947.31;;;26.03;51.23
59873;BME280;50750;51.636;4.948;2023-06-22T04:58:34;101946.30;;;26.02;51.20
59873;BME280;50750;51.636;4.948;2023-06-22T05:01:00;101951.14;;;26.02;51.19
59873;BME280;50750;51.636;4.948;2023-06-22T05:03:27;101953.49;;;26.02;51.22
59873;BME280;50750;51.636;4.948;2023-06-22T05:05:53;101951.73;;;26.01;51.23
59873;BME280;50750;51.636;4.948;2023-06-22T05:08:21;101949.59;;;26.01;51.26
59873;BME280;50750;51.636;4.948;2023-06-22T05:10:47;101946.92;;;26.01;51.27
59873;BME280;50750;51.636;4.948;2023-06-22T05:13:13;101952.33;;;26.00;51.29
59873;BME280;50750;51.636;4.948;2023-06-22T05:15:40;101948.44;;;25.99;51.17
59873;BME280;50750;51.636;4.948;2023-06-22T05:18:06;101947.73;;;25.99;51.23
59873;BME280;50750;51.636;4.948;2023-06-22T05:20:33;101942.91;;;25.99;51.32
59873;BME280;50750;51.636;4.948;2023-06-22T05:23:02;101940.48;;;25.98;51.31
59873;BME280;50750;51.636;4.948;2023-06-22T05:25:29;101943.40;;;25.97;51.35
59873;BME280;50750;51.636;4.948;2023-06-22T05:27:56;101942.31;;;25.97;51.25
59873;BME280;50750;51.636;4.948;2023-06-22T05:30:23;101941.68;;;25.96;51.39
59873;BME280;50750;51.636;4.948;2023-06-22T05:32:49;101942.81;;;25.96;51.19
59873;BME280;50750;51.636;4.948;2023-06-22T05:35:15;101941.20;;;25.96;51.27
59873;BME280;50750;51.636;4.948;2023-06-22T05:37:42;101937.12;;;25.95;51.31
59873;BME280;50750;51.636;4.948;2023-06-22T05:40:09;101940.70;;;25.95;51.35
59873;BME280;50750;51.636;4.948;2023-06-22T05:42:36;101941.48;;;25.94;51.31
59873;BME280;50750;51.636;4.948;2023-06-22T05:45:02;101941.50;;;25.94;51.39
59873;BME280;50750;51.636;4.948;2023-06-22T05:47:29;101936.71;;;25.94;51.40
59873;BME280;50750;51.636;4.948;2023-06-22T05:49:55;101938.21;;;25.93;51.48
59873;BME280;50750;51.636;4.948;2023-06-22T05:52:22;101937.32;;;25.93;51.45
59873;BME280;50750;51.636;4.948;2023-06-22T05:54:48;101933.03;;;25.92;51.38
59873;BME280;50750;51.636;4.948;2023-06-22T05:57:14;101928.77;;;25.92;51.44
59873;BME280;50750;51.636;4.948;2023-06-22T05:59:41;101925.73;;;25.91;51.44
59873;BME280;50750;51.636;4.948;2023-06-22T06:02:07;101927.19;;;25.91;51.52
59873;BME280;50750;51.636;4.948;2023-06-22T06:04:34;101924.50;;;25.91;51.46
59873;BME280;50750;51.636;4.948;2023-06-22T06:07:00;101921.44;;;25.91;51.36
59873;BME280;50750;51.636;4.948;2023-06-22T06:09:27;101919.51;;;25.91;51.39
59873;BME280;50750;51.636;4.948;2023-06-22T06:11:53;101924.47;;;25.92;51.42
59873;BME280;50750;51.636;4.948;2023-06-22T06:14:20;101927.55;;;25.91;51.40
59873;BME280;50750;51.636;4.948;2023-06-22T06:16:48;101930.08;;;25.91;51.49
59873;BME280;50750;51.636;4.948;2023-06-22T06:19:14;101931.92;;;25.91;51.46
59873;BME280;50750;51.636;4.948;2023-06-22T06:21:41;101927.80;;;25.91;51.51
59873;BME280;50750;51.636;4.948;2023-06-22T06:24:07;101927.45;;;25.90;51.55
59873;BME280;50750;51.636;4.948;2023-06-22T06:26:33;101929.48;;;25.90;51.47
59873;BME280;50750;51.636;4.948;2023-06-22T06:29:01;101927.30;;;25.90;51.53
59873;BME280;50750;51.636;4.948;2023-06-22T06:31:28;101923.56;;;25.89;51.56
59873;BME280;50750;51.636;4.948;2023-06-22T06:33:55;101916.45;;;25.89;51.41
59873;BME280;50750;51.636;4.948;2023-06-22T06:36:22;101917.89;;;25.89;51.44
59873;BME280;50750;51.636;4.948;2023-06-22T06:38:49;101918.77;;;25.89;51.49
59873;BME280;50750;51.636;4.948;2023-06-22T06:41:16;101921.48;;;25.89;51.47
59873;BME280;50750;51.636;4.948;2023-06-22T06:43:42;101921.31;;;25.89;51.46
59873;BME280;50750;51.636;4.948;2023-06-22T06:46:09;101915.05;;;25.88;51.54
59873;BME280;50750;51.636;4.948;2023-06-22T06:48:35;101911.63;;;25.89;51.51
59873;BME280;50750;51.636;4.948;2023-06-22T06:51:02;101910.20;;;25.88;51.50
59873;BME280;50750;51.636;4.948;2023-06-22T06:53:28;101912.53;;;25.89;51.55
59873;BME280;50750;51.636;4.948;2023-06-22T06:55:56;101911.48;;;25.88;51.58
59873;BME280;50750;51.636;4.948;2023-06-22T06:58:22;101911.08;;;25.89;51.50
59873;BME280;50750;51.636;4.948;2023-06-22T07:00:49;101908.96;;;25.88;51.54
59873;BME280;50750;51.636;4.948;2023-06-22T07:03:15;101908.96;;;25.88;51.47
59873;BME280;50750;51.636;4.948;2023-06-22T07:05:41;101908.95;;;25.88;51.60
59873;BME280;50750;51.636;4.948;2023-06-22T07:08:08;101910.02;;;25.89;51.56
59873;BME280;50750;51.636;4.948;2023-06-22T07:10:34;101906.41;;;25.89;51.44
59873;BME280;50750;51.636;4.948;2023-06-22T07:13:00;101907.30;;;25.89;51.47
59873;BME280;50750;51.636;4.948;2023-06-22T07:15:27;101904.60;;;25.89;51.54
59873;BME280;50750;51.636;4.948;2023-06-22T07:17:53;101901.56;;;25.89;51.59
59873;BME280;50750;51.636;4.948;2023-06-22T07:20:20;101900.34;;;25.88;51.52
59873;BME280;50750;51.636;4.948;2023-06-22T07:22:46;101898.87;;;25.89;51.52
59873;BME280;50750;51.636;4.948;2023-06-22T07:25:13;101896.52;;;25.89;51.51
59873;BME280;50750;51.636;4.948;2023-06-22T07:28:03;101899.21;;;25.89;51.62
59873;BME280;50750;51.636;4.948;2023-06-22T07:30:31;101898.53;;;25.88;51.46
59873;BME280;50750;51.636;4.948;2023-06-22T07:32:58;101899.98;;;25.88;51.63
59873;BME280;50750;51.636;4.948;2023-06-22T07:35:24;101899.24;;;25.89;51.39
59873;BME280;50750;51.636;4.948;2023-06-22T07:37:51;101899.36;;;25.89;51.56
59873;BME280;50750;51.636;4.948;2023-06-22T07:40:17;101898.51;;;25.89;51.52
59873;BME280;50750;51.636;4.948;2023-06-22T07:42:44;101899.90;;;25.89;51.62
59873;BME280;50750;51.636;4.948;2023-06-22T07:45:10;101898.65;;;25.89;51.44
59873;BME280;50750;51.636;4.948;2023-06-22T07:47:36;101896.48;;;25.89;51.65
59873;BME280;50750;51.636;4.948;2023-06-22T07:50:03;101891.98;;;25.89;51.45
59873;BME280;50750;51.636;4.948;2023-06-22T07:52:30;101882.98;;;25.90;51.53
59873;BME280;50750;51.636;4.948;2023-06-22T07:54:57;101877.41;;;25.90;51.53
59873;BME280;50750;51.636;4.948;2023-06-22T07:57:24;101874.90;;;25.90;51.66
59873;BME280;50750;51.636;4.948;2023-06-22T08:00:00;101869.70;;;25.90;51.58
59873;BME280;50750;51.636;4.948;2023-06-22T08:02:26;101862.13;;;25.90;51.53
59873;BME280;50750;51.636;4.948;2023-06-22T08:04:53;101850.48;;;25.90;51.60
59873;BME280;50750;51.636;4.948;2023-06-22T08:07:19;101848.15;;;25.90;51.57
59873;BME280;50750;51.636;4.948;2023-06-22T08:09:47;101852.98;;;25.91;51.60
59873;BME280;50750;51.636;4.948;2023-06-22T08:12:15;101854.81;;;25.90;51.76
59873;BME280;50750;51.636;4.948;2023-06-22T08:14:42;101845.73;;;25.89;52.47
59873;BME280;50750;51.636;4.948;2023-06-22T08:17:12;101841.77;;;25.87;53.07
59873;BME280;50750;51.636;4.948;2023-06-22T08:19:40;101837.02;;;25.86;52.69
59873;BME280;50750;51.636;4.948;2023-06-22T08:22:06;101831.91;;;25.85;52.84
59873;BME280;50750;51.636;4.948;2023-06-22T08:24:33;101831.41;;;25.84;52.83
59873;BME280;50750;51.636;4.948;2023-06-22T08:27:00;101831.23;;;25.84;52.84
59873;BME280;50750;51.636;4.948;2023-06-22T08:29:26;101825.18;;;25.83;52.80
59873;BME280;50750;51.636;4.948;2023-06-22T08:31:52;101826.95;;;25.84;52.81
59873;BME280;50750;51.636;4.948;2023-06-22T08:34:19;101827.86;;;25.84;52.60
59873;BME280;50750;51.636;4.948;2023-06-22T08:36:48;101832.70;;;25.84;52.62
59873;BME280;50750;51.636;4.948;2023-06-22T08:39:19;101834.48;;;25.84;52.50
59873;BME280;50750;51.636;4.948;2023-06-22T08:41:49;101835.45;;;25.83;52.46
59873;BME280;50750;51.636;4.948;2023-06-22T08:44:18;101838.45;;;25.84;52.53
59873;BME280;50750;51.636;4.948;2023-06-22T08:46:45;101840.57;;;25.84;52.50
59873;BME280;50750;51.636;4.948;2023-06-22T08:49:11;101840.41;;;25.84;52.39
59873;BME280;50750;51.636;4.948;2023-06-22T08:51:38;101841.10;;;25.84;52.35
59873;BME280;50750;51.636;4.948;2023-06-22T08:54:04;101842.21;;;25.84;52.39
59873;BME280;50750;51.636;4.948;2023-06-22T08:56:31;101835.90;;;25.84;52.21
59873;BME280;50750;51.636;4.948;2023-06-22T08:58:57;101834.11;;;25.84;52.36
59873;BME280;50750;51.636;4.948;2023-06-22T09:01:24;101828.92;;;25.84;52.38
59873;BME280;50750;51.636;4.948;2023-06-22T09:03:50;101830.89;;;25.84;52.20
59873;BME280;50750;51.636;4.948;2023-06-22T09:06:21;101831.79;;;25.84;52.29
59873;BME280;50750;51.636;4.948;2023-06-22T09:08:48;101832.34;;;25.84;52.30
59873;BME280;50750;51.636;4.948;2023-06-22T09:11:15;101831.77;;;25.84;52.28
59873;BME280;50750;51.636;4.948;2023-06-22T09:13:41;101828.95;;;25.83;52.16
59873;BME280;50750;51.636;4.948;2023-06-22T09:16:08;101828.74;;;25.84;52.16
59873;BME280;50750;51.636;4.948;2023-06-22T09:18:35;101826.05;;;25.84;52.21
59873;BME280;50750;51.636;4.948;2023-06-22T09:21:02;101824.64;;;25.83;52.18
59873;BME280;50750;51.636;4.948;2023-06-22T09:23:28;101818.71;;;25.83;52.19
59873;BME280;50750;51.636;4.948;2023-06-22T09:25:55;101809.77;;;25.83;52.15
59873;BME280;50750;51.636;4.948;2023-06-22T09:28:21;101804.77;;;25.83;52.13
59873;BME280;50750;51.636;4.948;2023-06-22T09:30:48;101804.92;;;25.83;52.13
59873;BME280;50750;51.636;4.948;2023-06-22T09:33:14;101800.13;;;25.83;52.09
59873;BME280;50750;51.636;4.948;2023-06-22T09:35:40;101802.27;;;25.83;52.09
59873;BME280;50750;51.636;4.948;2023-06-22T09:38:07;101805.52;;;25.83;52.24
59873;BME280;50750;51.636;4.948;2023-06-22T09:40:33;101807.27;;;25.83;52.20
59873;BME280;50750;51.636;4.948;2023-06-22T09:43:05;101806.37;;;25.83;52.20
59873;BME280;50750;51.636;4.948;2023-06-22T09:45:32;101806.52;;;25.83;52.19
59873;BME280;50750;51.636;4.948;2023-06-22T09:47:58;101804.58;;;25.83;52.32
59873;BME280;50750;51.636;4.948;2023-06-22T09:50:24;101802.95;;;25.83;52.16
59873;BME280;50750;51.636;4.948;2023-06-22T09:52:50;101801.39;;;25.82;52.11
59873;BME280;50750;51.636;4.948;2023-06-22T09:55:21;101804.08;;;25.82;52.18
59873;BME280;50750;51.636;4.948;2023-06-22T09:57:48;101807.31;;;25.82;52.15
59873;BME280;50750;51.636;4.948;2023-06-22T10:00:16;101807.30;;;25.83;52.26
59873;BME280;50750;51.636;4.948;2023-06-22T10:02:43;101807.48;;;25.82;52.18
59873;BME280;50750;51.636;4.948;2023-06-22T10:05:09;101806.61;;;25.82;52.15
59873;BME280;50750;51.636;4.948;2023-06-22T10:07:35;101803.92;;;25.82;52.26
59873;BME280;50750;51.636;4.948;2023-06-22T10:10:06;101803.92;;;25.82;52.33
59873;BME280;50750;51.636;4.948;2023-06-22T10:12:33;101799.28;;;25.82;52.24
59873;BME280;50750;51.636;4.948;2023-06-22T10:14:59;101803.39;;;25.82;52.23
59873;BME280;50750;51.636;4.948;2023-06-22T10:17:26;101801.76;;;25.82;52.15
59873;BME280;50750;51.636;4.948;2023-06-22T10:19:52;101803.58;;;25.82;52.11
59873;BME280;50750;51.636;4.948;2023-06-22T10:22:18;101802.30;;;25.82;52.12
59873;BME280;50750;51.636;4.948;2023-06-22T10:24:45;101803.39;;;25.82;52.18
59873;BME280;50750;51.636;4.948;2023-06-22T10:27:12;101806.45;;;25.82;52.09
59873;BME280;50750;51.636;4.948;2023-06-22T10:29:38;101808.76;;;25.82;52.20
59873;BME280;50750;51.636;4.948;2023-06-22T10:32:05;101808.60;;;25.82;52.07
59873;BME280;50750;51.636;4.948;2023-06-22T10:34:31;101811.10;;;25.82;52.14
59873;BME280;50750;51.636;4.948;2023-06-22T10:36:58;101811.98;;;25.82;52.12
59873;BME280;50750;51.636;4.948;2023-06-22T10:39:24;101815.75;;;25.82;52.12
59873;BME280;50750;51.636;4.948;2023-06-22T10:41:50;101816.46;;;25.82;52.08
59873;BME280;50750;51.636;4.948;2023-06-22T10:44:17;101819.88;;;25.82;52.08
59873;BME280;50750;51.636;4.948;2023-06-22T10:46:43;101817.38;;;25.82;52.19
59873;BME280;50750;51.636;4.948;2023-06-22T10:49:10;101820.06;;;25.82;52.13
59873;BME280;50750;51.636;4.948;2023-06-22T10:51:36;101814.14;;;25.82;52.22
59873;BME280;50750;51.636;4.948;2023-06-22T10:54:02;101814.86;;;25.82;52.19
59873;BME280;50750;51.636;4.948;2023-06-22T10:56:30;101815.39;;;25.82;52.08
59873;BME280;50750;51.636;4.948;2023-06-22T10:58:56;101818.98;;;25.82;52.17
59873;BME280;50750;51.636;4.948;2023-06-22T11:01:23;101816.28;;;25.82;52.17
59873;BME280;50750;51.636;4.948;2023-06-22T11:03:49;101820.96;;;25.82;52.16
59873;BME280;50750;51.636;4.948;2023-06-22T11:06:15;101821.52;;;25.82;52.10
59873;BME280;50750;51.636;4.948;2023-06-22T11:08:44;101820.42;;;25.82;52.17
59873;BME280;50750;51.636;4.948;2023-06-22T11:11:10;101820.61;;;25.82;52.23
59873;BME280;50750;51.636;4.948;2023-06-22T11:13:37;101818.85;;;25.81;52.13
59873;BME280;50750;51.636;4.948;2023-06-22T11:16:04;101825.11;;;25.82;52.04
59873;BME280;50750;51.636;4.948;2023-06-22T11:18:31;101826.17;;;25.82;52.29
59873;BME280;50750;51.636;4.948;2023-06-22T11:21:00;101825.62;;;25.82;52.32
59873;BME280;50750;51.636;4.948;2023-06-22T11:23:26;101825.27;;;25.82;52.08
59873;BME280;50750;51.636;4.948;2023-06-22T11:25:54;101822.77;;;25.82;52.13
59873;BME280;50750;51.636;4.948;2023-06-22T11:28:21;101821.20;;;25.82;52.20
59873;BME280;50750;51.636;4.948;2023-06-22T11:30:47;101820.59;;;25.82;52.19
59873;BME280;50750;51.636;4.948;2023-06-22T11:33:13;101816.52;;;25.82;52.14
59873;BME280;50750;51.636;4.948;2023-06-22T11:35:40;101807.71;;;25.82;52.27
59873;BME280;50750;51.636;4.948;2023-06-22T11:38:06;101802.51;;;25.82;52.12
59873;BME280;50750;51.636;4.948;2023-06-22T11:40:33;101797.30;;;25.82;52.15
59873;BME280;50750;51.636;4.948;2023-06-22T11:43:00;101793.71;;;25.82;52.32
59873;BME280;50750;51.636;4.948;2023-06-22T11:45:26;101791.94;;;25.82;52.23
59873;BME280;50750;51.636;4.948;2023-06-22T11:47:53;101789.61;;;25.82;52.19
59873;BME280;50750;51.636;4.948;2023-06-22T11:50:19;101787.45;;;25.82;52.29
59873;BME280;50750;51.636;4.948;2023-06-22T11:52:45;101782.45;;;25.81;52.23
59873;BME280;50750;51.636;4.948;2023-06-22T11:55:12;101782.23;;;25.82;52.12
59873;BME280;50750;51.636;4.948;2023-06-22T11:57:53;101782.81;;;25.81;52.26
59873;BME280;50750;51.636;4.948;2023-06-22T12:00:20;101781.16;;;25.82;52.37
59873;BME280;50750;51.636;4.948;2023-06-22T12:02:48;101774.88;;;25.82;52.15
59873;BME280;50750;51.636;4.948;2023-06-22T12:05:14;101774.69;;;25.82;52.38
59873;BME280;50750;51.636;4.948;2023-06-22T12:07:41;101769.67;;;25.82;52.39
59873;BME280;50750;51.636;4.948;2023-06-22T12:10:07;101765.19;;;25.82;52.41
59873;BME280;50750;51.636;4.948;2023-06-22T12:12:34;101765.23;;;25.81;52.33
59873;BME280;50750;51.636;4.948;2023-06-22T12:15:00;101761.45;;;25.81;52.36
59873;BME280;50750;51.636;4.948;2023-06-22T12:17:30;101763.95;;;25.82;52.44
59873;BME280;50750;51.636;4.948;2023-06-22T12:19:56;101758.79;;;25.81;52.34
59873;BME280;50750;51.636;4.948;2023-06-22T12:22:23;101758.05;;;25.81;52.53
59873;BME280;50750;51.636;4.948;2023-06-22T12:24:49;101753.80;;;25.81;52.49
59873;BME280;50750;51.636;4.948;2023-06-22T12:27:17;101750.69;;;25.81;52.49
59873;BME280;50750;51.636;4.948;2023-06-22T12:29:47;101748.27;;;25.80;52.47
59873;BME280;50750;51.636;4.948;2023-06-22T12:32:14;101746.94;;;25.81;52.48
59873;BME280;50750;51.636;4.948;2023-06-22T12:34:44;101747.28;;;25.81;52.41
59873;BME280;50750;51.636;4.948;2023-06-22T12:37:10;101747.31;;;25.81;52.50
59873;BME280;50750;51.636;4.948;2023-06-22T12:39:37;101748.70;;;25.82;52.48
59873;BME280;50750;51.636;4.948;2023-06-22T12:42:03;101747.69;;;25.81;52.49
59873;BME280;50750;51.636;4.948;2023-06-22T12:44:30;101755.02;;;25.81;52.42
59873;BME280;50750;51.636;4.948;2023-06-22T12:46:56;101759.89;;;25.81;52.45
59873;BME280;50750;51.636;4.948;2023-06-22T12:49:23;101760.58;;;25.81;52.49
59873;BME280;50750;51.636;4.948;2023-06-22T12:51:49;101758.41;;;25.81;52.49
59873;BME280;50750;51.636;4.948;2023-06-22T12:54:15;101753.98;;;25.81;52.48
59873;BME280;50750;51.636;4.948;2023-06-22T12:56:42;101756.30;;;25.81;52.58